SBMQSBSN

Guest
Details From SBMQ - MACAPA
To SBSN - SANTAREM
Flight Number -
Tags generated
Created
Modified
Stats Distance 268 nm / 497 km
Max Altitude 0 ft / 0 m
Waypoints 2
Social Downloads 0
Likes 0
Share VATSIM

Download

Looking for another format? Having issues loading an existing format? Contact us
Advertisement - Login to hide

Notes

Basic altitude profile: - Ascent Rate: 500ft/min - Ascent Speed: 130kts - Cruise Altitude: 100ft - Cruise Speed: 184kts - Descent Rate: 500ft/min - Descent Speed: 150kts Options: - Use NATs: yes - Use PACOTS: yes - Use low airways: no - Use high airways: no

Route

SBMQ SBSN

ID Type Via Altitude Latitude Longitude Leg Dist Tot Dist Heading (true) Name
O SBMQ APT - 0 ft / 0 m 0.05064˚ -51.07216˚ - 0 nm - MACAPA
O SBSN APT - 0 ft / 0 m -2.42243˚ -54.79279˚ 268 nm 268 nm 236° / 236° SANTAREM

Altitude Profile

Advertisement - Login to hide

Weather


0- 5 10 15 20 25 30 35+ Temperature / ° C

Clouds and Precipitation
Forecast for 2017-12-11 06:00 UTC. Updated 22 minutes ago

Ground ~20,000 ft ~40,000 ft Winds

SBMQ

Details ICAO SBMQ (MCP)
Name MACAPA
Region Brazil
Timezone America/Belem (UTC-3.0)
Stats Elevation 56 ft / 17 m (AMSL)
Location 0.050639° -51.072162°
Runways 1
Magnetic Variation 19.352° W

METAR

SBMQ 110500Z 03003KT 9999 FEW013 27/25 Q1009

Decode

TAF

TAF SBMQ 102200Z 1100/1124 04010KT CAVOK TN24/1108Z TX36/1115Z BECMG 1101/1103 36005KT BECMG 1111/1113 07010KT 9999 SCT020 BECMG 1116/1118 FEW020 FEW025TCU BECMG 1121/1123 04010KT CAVOK RMK PDY

Decode

Departure Runways

ID Width Length Bearing (true) Bearing (mag) Surface Threshold Offset Overrun Length
08 148 ft / 45 m 6,917 ft / 2,108 m 57.22° 76.57° Asphalt 0 ft / 0 m 219 ft / 67 m
26 148 ft / 45 m 6,917 ft / 2,108 m 237.22° 256.57° Asphalt 0 ft / 0 m 219 ft / 67 m

SBSN

Details ICAO SBSN (STM)
Name SANTAREM
Region Brazil
Timezone America/Santarem (UTC-3.0)
Stats Elevation 198 ft / 60 m (AMSL)
Location -2.422430° -54.792788°
Runways 1
Magnetic Variation 18.343° W

METAR

SBSN 110500Z 12004KT 9999 FEW017 26/25 Q1007

Decode

TAF

TAF SBSN 102200Z 1100/1124 12005KT CAVOK TN26/1106Z TX34/1118Z BECMG 1101/1103 07010KT 8000 NSC BECMG 1105/1107 07005KT 9999 SCT015 BECMG 1109/1111 08010KT CAVOK BECMG 1113/1115 07005KT 9999 FEW020 BECMG 1117/1119 09010KT FEW020 FEW025TCU BECMG 1121/1123 12005KT CAVOK RMK PDY

Decode

Destination Runways

ID Width Length Bearing (true) Bearing (mag) Surface Threshold Offset Overrun Length
10 148 ft / 45 m 7,873 ft / 2,400 m 80.69° 99.03° Asphalt 0 ft / 0 m 245 ft / 75 m
28 148 ft / 45 m 7,873 ft / 2,400 m 260.69° 279.03° Asphalt 0 ft / 0 m 202 ft / 62 m

Approach Navaids

Runway Type Ident Frequency Range Bearing (true) Bearing (mag) Slope Elevation
10 Localiser ISN 109.30 MHz 18 nm / 33 km 81.06° 99.40° - 198 ft / 60 m (AMSL)

Popular Alternatives